createdAt,value
2022-10-03T00:00:12.807Z,20.58
2022-10-03T00:01:58.743Z,25.00
2022-10-03T00:03:15.192Z,29.65
2022-10-03T00:04:35.534Z,27.77
2022-10-03T00:05:57.248Z,23.50
2022-10-03T00:07:04.634Z,16.85
2022-10-03T00:08:17.448Z,37.67
2022-10-03T00:09:34.465Z,32.30
2022-10-03T00:11:03.050Z,32.43
2022-10-03T00:12:35.754Z,24.55
2022-10-03T00:13:56.285Z,28.17
2022-10-03T00:15:13.627Z,14.50
2022-10-03T00:16:41.284Z,13.65
2022-10-03T00:17:57.408Z,22.55
2022-10-03T00:19:30.143Z,13.17
2022-10-03T00:21:03.535Z,11.20
2022-10-03T00:22:18.433Z,16.70
2022-10-03T00:23:49.255Z,15.97
2022-10-03T00:25:17.967Z,11.43
2022-10-03T00:26:46.043Z,19.20
2022-10-03T00:28:03.053Z,12.13
2022-10-03T00:29:10.822Z,19.70
2022-10-03T00:30:23.155Z,14.33
2022-10-03T00:31:33.694Z,18.00
2022-10-03T00:33:04.180Z,13.67
2022-10-03T00:34:17.062Z,22.97
2022-10-03T00:36:00.170Z,12.97
2022-10-03T00:37:39.099Z,17.57
2022-10-03T00:38:59.885Z,10.10
2022-10-03T00:40:50.643Z,12.13
2022-10-03T00:42:01.147Z,13.30
2022-10-03T00:43:29.901Z,21.43
2022-10-03T00:45:01.932Z,13.20
2022-10-03T00:46:32.797Z,10.23
2022-10-03T00:47:46.404Z,12.13
2022-10-03T00:49:14.125Z,18.27
2022-10-03T00:50:15.700Z,15.27
2022-10-03T00:52:02.909Z,17.43
2022-10-03T00:53:32.115Z,16.40
2022-10-03T00:54:45.145Z,9.90
2022-10-03T00:56:21.738Z,20.27
2022-10-03T00:57:41.869Z,12.40
2022-10-03T00:59:21.429Z,18.53
2022-10-03T01:00:27.837Z,10.00
2022-10-03T01:01:29.485Z,13.40
2022-10-03T01:02:46.488Z,14.13
2022-10-03T01:04:20.299Z,10.37
2022-10-03T01:05:27.906Z,9.80
2022-10-03T01:06:42.375Z,13.00
2022-10-03T01:08:02.330Z,11.27
2022-10-03T01:09:13.376Z,12.13
2022-10-03T01:10:41.008Z,12.90
2022-10-03T01:12:07.972Z,5.80
2022-10-03T01:13:27.977Z,20.33
2022-10-03T01:15:07.610Z,8.65
2022-10-03T01:16:16.840Z,15.57
2022-10-03T01:17:37.743Z,9.73
2022-10-03T01:18:42.122Z,9.70
2022-10-03T01:20:08.436Z,12.48
2022-10-03T01:21:36.987Z,9.20
2022-10-03T01:23:16.626Z,8.75
2022-10-03T01:24:52.111Z,7.75
2022-10-03T01:26:26.109Z,9.10
2022-10-03T01:28:10.789Z,13.10
2022-10-03T01:29:37.773Z,9.13
2022-10-03T01:30:50.619Z,23.17
2022-10-03T01:32:04.881Z,16.08
2022-10-03T01:33:44.384Z,10.40
2022-10-03T01:35:09.333Z,6.03
2022-10-03T01:36:20.517Z,7.00
2022-10-03T01:37:58.672Z,6.80
2022-10-03T01:39:27.775Z,15.50
2022-10-03T01:40:43.512Z,6.70
2022-10-03T01:42:01.202Z,8.80
2022-10-03T01:43:09.732Z,10.10
2022-10-03T01:44:23.617Z,11.33
2022-10-03T01:45:48.086Z,9.10
2022-10-03T01:46:55.865Z,13.40
2022-10-03T01:48:12.822Z,10.90
2022-10-03T01:49:25.871Z,15.60
2022-10-03T01:50:38.745Z,14.30
2022-10-03T01:52:00.255Z,14.38
2022-10-03T01:53:09.100Z,15.90
2022-10-03T01:54:35.075Z,20.20
2022-10-03T01:55:51.459Z,13.27
2022-10-03T01:57:40.716Z,16.53
2022-10-03T01:58:57.004Z,15.50
2022-10-03T02:00:26.137Z,10.60
2022-10-03T02:02:07.410Z,17.13
2022-10-03T02:03:20.576Z,16.00
2022-10-03T02:04:34.266Z,16.60
2022-10-03T02:05:39.562Z,13.07
2022-10-03T02:06:54.275Z,9.60
2022-10-03T02:08:23.868Z,20.00
2022-10-03T02:09:36.515Z,26.37
2022-10-03T02:10:49.130Z,31.07
2022-10-03T02:11:50.798Z,23.20
2022-10-03T02:13:17.440Z,33.33
2022-10-03T02:14:40.332Z,31.60
2022-10-03T02:15:44.964Z,29.10
2022-10-03T02:16:59.117Z,22.43
2022-10-03T02:18:19.929Z,23.67
2022-10-03T02:19:27.996Z,14.20
2022-10-03T02:20:43.296Z,31.83
2022-10-03T02:21:51.162Z,19.57
2022-10-03T02:22:55.413Z,17.93
2022-10-03T02:24:22.460Z,52.27
2022-10-03T02:25:51.643Z,30.13
2022-10-03T02:27:18.024Z,31.83
2022-10-03T02:28:45.874Z,40.97
2022-10-03T02:30:06.313Z,39.13
2022-10-03T02:31:42.934Z,47.13
2022-10-03T02:33:06.144Z,45.10
2022-10-03T02:34:19.684Z,37.10
2022-10-03T02:35:44.577Z,20.73
2022-10-03T02:37:20.582Z,19.80
2022-10-03T02:38:43.905Z,37.27
2022-10-03T02:40:18.400Z,21.90
2022-10-03T02:41:46.148Z,34.90
2022-10-03T02:42:51.513Z,28.00
2022-10-03T02:44:18.148Z,14.43
2022-10-03T02:45:38.586Z,16.87
2022-10-03T02:46:59.354Z,21.80
2022-10-03T02:48:31.827Z,24.38
2022-10-03T02:49:55.886Z,34.13
2022-10-03T02:51:18.749Z,37.17
2022-10-03T02:52:26.232Z,31.23
2022-10-03T02:53:51.359Z,22.48
2022-10-03T02:55:31.987Z,22.93
2022-10-03T02:56:33.532Z,23.90
2022-10-03T02:57:50.144Z,36.50
2022-10-03T02:59:21.057Z,27.80
2022-10-03T03:00:36.191Z,24.90
2022-10-03T03:01:59.891Z,24.70
2022-10-03T03:03:35.414Z,21.50
2022-10-03T03:05:12.424Z,32.10
2022-10-03T03:06:20.340Z,32.73
2022-10-03T03:07:38.432Z,27.60
2022-10-03T03:09:23.339Z,17.77
2022-10-03T03:10:51.011Z,14.90
2022-10-03T03:11:56.391Z,13.97
2022-10-03T03:13:22.508Z,20.13
2022-10-03T03:15:00.552Z,13.43
2022-10-03T03:16:29.557Z,10.30
2022-10-03T03:18:07.044Z,19.88
2022-10-03T03:19:27.058Z,18.30
2022-10-03T03:20:41.164Z,11.10
2022-10-03T03:21:57.648Z,16.55
2022-10-03T03:23:37.297Z,19.73
2022-10-03T03:24:38.942Z,21.35
2022-10-03T03:25:55.351Z,25.50
2022-10-03T03:27:02.945Z,27.98
2022-10-03T03:28:18.466Z,18.20
2022-10-03T03:29:43.224Z,26.33
2022-10-03T03:31:16.356Z,23.30
2022-10-03T03:32:31.227Z,24.38
2022-10-03T03:33:43.746Z,18.38
2022-10-03T03:35:07.056Z,13.27
2022-10-03T03:36:18.952Z,15.27
2022-10-03T03:37:27.620Z,12.20
2022-10-03T03:38:36.210Z,11.00
2022-10-03T03:39:56.441Z,15.07
2022-10-03T03:41:01.218Z,10.65
2022-10-03T03:42:34.815Z,22.50
2022-10-03T03:43:55.586Z,23.35
2022-10-03T03:45:25.111Z,13.30
2022-10-03T03:46:52.777Z,18.08
2022-10-03T03:48:16.909Z,11.52
2022-10-03T03:49:51.088Z,16.13
2022-10-03T03:51:05.119Z,10.40
2022-10-03T03:52:28.464Z,13.95
2022-10-03T03:53:54.453Z,17.08
2022-10-03T03:55:02.182Z,11.70
2022-10-03T03:56:28.630Z,14.20
2022-10-03T03:57:47.371Z,13.77
2022-10-03T03:59:02.595Z,7.85
2022-10-03T04:00:15.856Z,12.63
2022-10-03T04:01:32.171Z,15.30
2022-10-03T04:02:44.800Z,19.02
2022-10-03T04:04:23.114Z,17.30
2022-10-03T04:05:34.943Z,14.43
2022-10-03T04:07:22.137Z,20.00
2022-10-03T04:08:44.673Z,23.58
2022-10-03T04:10:08.024Z,19.20
2022-10-03T04:11:31.088Z,24.23
2022-10-03T04:12:56.879Z,15.13
2022-10-03T04:14:16.914Z,25.30
2022-10-03T04:15:38.454Z,17.90
2022-10-03T04:17:19.783Z,12.52
2022-10-03T04:18:59.143Z,11.70
2022-10-03T04:20:07.511Z,16.85
2022-10-03T04:21:23.997Z,14.32
2022-10-03T04:22:48.362Z,12.85
2022-10-03T04:23:58.214Z,15.98
2022-10-03T04:25:20.544Z,18.08
2022-10-03T04:26:40.388Z,23.63
2022-10-03T04:28:12.371Z,20.17
2022-10-03T04:29:30.424Z,26.50
2022-10-03T04:30:45.657Z,21.35
2022-10-03T04:32:11.289Z,29.17
2022-10-03T04:33:27.892Z,20.98
2022-10-03T04:34:41.859Z,18.02
2022-10-03T04:36:32.520Z,16.15
2022-10-03T04:38:00.623Z,12.85
2022-10-03T04:39:18.584Z,19.83
2022-10-03T04:40:43.546Z,24.10
2022-10-03T04:41:50.605Z,25.83
2022-10-03T04:43:24.175Z,24.30
2022-10-03T04:44:53.965Z,23.75
2022-10-03T04:46:17.718Z,80.18
2022-10-03T04:47:30.469Z,44.45
2022-10-03T04:48:40.998Z,77.25
2022-10-03T04:49:53.043Z,41.00
2022-10-03T04:51:03.740Z,46.25
2022-10-03T04:52:14.571Z,59.95
2022-10-03T04:53:19.276Z,61.28
2022-10-03T04:54:44.567Z,89.10
2022-10-03T04:55:51.416Z,105.18
2022-10-03T04:57:10.952Z,118.57
2022-10-03T04:58:35.249Z,42.25
2022-10-03T04:59:53.711Z,18.80
2022-10-03T05:01:17.753Z,17.98
2022-10-03T05:02:45.936Z,39.08
2022-10-03T05:04:04.992Z,29.15
2022-10-03T05:05:12.406Z,32.45
2022-10-03T05:06:23.783Z,51.13
2022-10-03T05:07:50.928Z,100.95
2022-10-03T05:09:15.764Z,173.60
2022-10-03T05:10:45.400Z,60.40
2022-10-03T05:12:18.145Z,105.45
2022-10-03T05:13:19.848Z,349.90
2022-10-03T05:14:29.322Z,142.20
2022-10-03T05:15:44.823Z,39.92
2022-10-03T05:17:19.798Z,14.55
2022-10-03T05:18:53.116Z,55.72
2022-10-03T05:20:24.354Z,23.63
2022-10-03T05:21:56.110Z,22.23
2022-10-03T05:23:24.606Z,38.75
2022-10-03T05:25:10.443Z,33.75
2022-10-03T05:26:49.873Z,19.50
2022-10-03T05:28:27.007Z,27.58
2022-10-03T05:29:42.580Z,41.92
2022-10-03T05:30:54.269Z,22.20
2022-10-03T05:31:57.344Z,18.48
2022-10-03T05:33:24.776Z,19.98
2022-10-03T05:34:33.112Z,19.48
2022-10-03T05:35:51.127Z,18.50
2022-10-03T05:37:14.356Z,17.80
2022-10-03T05:38:15.924Z,28.77
2022-10-03T05:39:55.234Z,20.48
2022-10-03T05:41:26.119Z,17.90
2022-10-03T05:42:40.491Z,22.63
2022-10-03T05:43:47.888Z,23.30
2022-10-03T05:45:08.754Z,25.25
2022-10-03T05:46:47.883Z,20.35
2022-10-03T05:48:06.475Z,26.60
2022-10-03T05:49:34.975Z,24.20
2022-10-03T05:50:57.752Z,13.80
2022-10-03T05:52:12.741Z,18.83
2022-10-03T05:53:45.298Z,13.55
2022-10-03T05:55:08.314Z,20.83
2022-10-03T05:56:28.311Z,25.58
2022-10-03T05:57:35.783Z,27.08
2022-10-03T05:59:10.555Z,33.47
2022-10-03T06:00:23.749Z,27.02
2022-10-03T06:02:03.909Z,17.98
2022-10-03T06:03:14.603Z,30.58
2022-10-03T06:05:01.411Z,28.40
2022-10-03T06:06:24.736Z,28.75
2022-10-03T06:08:09.213Z,36.55
2022-10-03T06:10:01.747Z,31.45
2022-10-03T06:11:12.115Z,26.73
2022-10-03T06:12:19.251Z,31.90
2022-10-03T06:13:39.780Z,32.55
2022-10-03T06:15:04.985Z,26.85
2022-10-03T06:16:31.141Z,43.10
2022-10-03T06:17:43.034Z,28.55
2022-10-03T06:19:09.681Z,31.45
2022-10-03T06:20:45.415Z,27.63
2022-10-03T06:22:24.630Z,16.73
2022-10-03T06:23:58.493Z,26.65
2022-10-03T06:25:36.741Z,21.02
2022-10-03T06:27:13.670Z,15.77
2022-10-03T06:28:27.683Z,27.90
2022-10-03T06:29:52.147Z,24.43
2022-10-03T06:30:59.921Z,19.37
2022-10-03T06:32:10.754Z,15.60
2022-10-03T06:33:47.248Z,18.87
2022-10-03T06:35:15.515Z,17.77
2022-10-03T06:36:32.674Z,18.87
2022-10-03T06:38:02.186Z,17.40
2022-10-03T06:39:09.751Z,18.40
2022-10-03T06:40:26.469Z,16.73
2022-10-03T06:41:44.605Z,14.73
2022-10-03T06:43:00.850Z,17.73
2022-10-03T06:44:26.911Z,19.77
2022-10-03T06:45:47.229Z,13.43
2022-10-03T06:47:08.071Z,13.30
2022-10-03T06:48:28.010Z,12.70
2022-10-03T06:50:16.701Z,20.43
2022-10-03T06:51:30.621Z,11.87
2022-10-03T06:52:38.639Z,25.80
2022-10-03T06:54:01.825Z,17.43
2022-10-03T06:55:21.951Z,18.90
2022-10-03T06:56:49.785Z,21.95
2022-10-03T06:58:04.753Z,10.77
2022-10-03T06:59:18.059Z,17.57
2022-10-03T07:00:25.978Z,14.67
2022-10-03T07:01:46.645Z,14.43
2022-10-03T07:03:30.393Z,10.53
2022-10-03T07:04:58.661Z,13.90
2022-10-03T07:06:11.661Z,15.97
2022-10-03T07:07:13.227Z,19.70
2022-10-03T07:08:34.831Z,14.60
2022-10-03T07:09:57.041Z,12.37
2022-10-03T07:11:11.192Z,14.63
2022-10-03T07:12:31.322Z,13.27
2022-10-03T07:13:42.470Z,12.50
2022-10-03T07:15:16.055Z,28.20
2022-10-03T07:16:28.237Z,22.23
2022-10-03T07:17:35.111Z,11.10
2022-10-03T07:19:01.683Z,10.50
2022-10-03T07:20:26.489Z,9.30
2022-10-03T07:22:08.249Z,18.80
2022-10-03T07:23:48.547Z,9.63
2022-10-03T07:25:27.659Z,9.27
2022-10-03T07:26:37.221Z,6.83
2022-10-03T07:27:52.226Z,7.77
2022-10-03T07:29:12.563Z,6.03
2022-10-03T07:30:20.012Z,5.13
2022-10-03T07:31:45.835Z,6.73
2022-10-03T07:33:10.780Z,9.00
2022-10-03T07:34:43.477Z,6.07
2022-10-03T07:36:38.775Z,5.27
2022-10-03T07:38:04.823Z,4.90
2022-10-03T07:39:32.806Z,5.93
2022-10-03T07:40:52.575Z,6.30
2022-10-03T07:42:25.988Z,7.00
2022-10-03T07:43:55.416Z,7.37
2022-10-03T07:45:23.108Z,11.17
2022-10-03T07:46:50.851Z,5.63
2022-10-03T07:48:21.093Z,7.43
2022-10-03T07:49:59.950Z,6.23
2022-10-03T07:51:12.165Z,10.67
2022-10-03T07:52:50.302Z,6.57
2022-10-03T07:54:11.568Z,8.53
2022-10-03T07:55:35.740Z,12.40
2022-10-03T07:56:56.058Z,13.23
2022-10-03T07:58:13.154Z,18.40
2022-10-03T07:59:17.456Z,7.80
2022-10-03T08:00:56.632Z,7.43
2022-10-03T08:02:36.107Z,15.97
2022-10-03T08:03:59.922Z,11.80
2022-10-03T08:05:28.541Z,12.10
2022-10-03T08:06:38.082Z,8.43
2022-10-03T08:08:19.864Z,10.47
2022-10-03T08:09:43.458Z,9.70
2022-10-03T08:11:14.888Z,8.57
2022-10-03T08:12:22.229Z,11.53
2022-10-03T08:13:39.175Z,12.40
2022-10-03T08:15:14.922Z,10.57
2022-10-03T08:16:28.727Z,12.60
2022-10-03T08:18:03.432Z,6.57
2022-10-03T08:19:30.166Z,16.33
2022-10-03T08:20:52.766Z,10.00
2022-10-03T08:22:14.914Z,13.73
2022-10-03T08:23:37.872Z,7.23
2022-10-03T08:25:02.729Z,19.63
2022-10-03T08:26:35.167Z,13.43
2022-10-03T08:27:44.861Z,11.37
2022-10-03T08:29:10.245Z,21.97
2022-10-03T08:30:15.295Z,18.63
2022-10-03T08:31:29.276Z,29.10
2022-10-03T08:32:48.569Z,13.10
2022-10-03T08:34:35.035Z,24.50
2022-10-03T08:35:45.736Z,25.13
2022-10-03T08:37:45.068Z,20.10
2022-10-03T08:39:13.395Z,29.47
2022-10-03T08:40:36.548Z,17.57
2022-10-03T08:41:54.085Z,18.70
2022-10-03T08:43:13.615Z,17.67
2022-10-03T08:44:40.702Z,18.37
2022-10-03T08:45:45.028Z,16.60
2022-10-03T08:47:09.096Z,10.53
2022-10-03T08:48:29.623Z,10.77
2022-10-03T08:50:12.821Z,19.57
2022-10-03T08:51:33.292Z,10.20
2022-10-03T08:53:11.044Z,14.07
2022-10-03T08:54:22.398Z,14.50
2022-10-03T08:55:51.018Z,25.10
2022-10-03T08:57:08.518Z,14.63
2022-10-03T08:58:18.975Z,21.60
2022-10-03T08:59:57.601Z,12.83
2022-10-03T09:01:31.961Z,10.20
2022-10-03T09:03:34.297Z,6.80
2022-10-03T09:05:01.767Z,6.60
2022-10-03T09:06:19.883Z,13.27
2022-10-03T09:07:40.211Z,19.53
2022-10-03T09:09:00.465Z,16.43
2022-10-03T09:10:33.574Z,13.53
2022-10-03T09:11:58.642Z,13.10
2022-10-03T09:13:42.510Z,11.93
2022-10-03T09:14:59.122Z,14.80
2022-10-03T09:16:30.585Z,12.97
2022-10-03T09:17:51.158Z,13.80
2022-10-03T09:19:07.779Z,14.33
2022-10-03T09:20:24.714Z,10.30
2022-10-03T09:22:04.156Z,11.30
2022-10-03T09:23:33.668Z,9.07
2022-10-03T09:25:21.123Z,15.20
2022-10-03T09:27:09.718Z,9.77
2022-10-03T09:28:36.256Z,8.47
2022-10-03T09:30:03.996Z,10.53
2022-10-03T09:31:39.124Z,16.40
2022-10-03T09:32:57.238Z,9.83
2022-10-03T09:34:22.449Z,11.73
2022-10-03T09:35:39.491Z,8.60
2022-10-03T09:36:50.062Z,12.90
2022-10-03T09:38:21.642Z,9.70
2022-10-03T09:39:55.432Z,5.83
2022-10-03T09:41:28.493Z,9.37
2022-10-03T09:42:45.529Z,6.97
2022-10-03T09:44:14.962Z,6.53
2022-10-03T09:45:35.438Z,5.60
2022-10-03T09:46:46.446Z,7.67
2022-10-03T09:47:51.461Z,5.90
2022-10-03T09:49:35.165Z,8.83
2022-10-03T09:51:06.347Z,13.87
2022-10-03T09:52:22.597Z,5.13
2022-10-03T09:53:53.143Z,6.30
2022-10-03T09:55:25.177Z,18.93
2022-10-03T09:56:47.813Z,12.43
2022-10-03T09:58:05.327Z,27.17
2022-10-03T09:59:39.201Z,18.63
2022-10-03T10:00:54.740Z,8.60
2022-10-03T10:02:18.126Z,9.60
2022-10-03T10:03:31.746Z,9.30
2022-10-03T10:04:56.341Z,9.10
2022-10-03T10:06:10.956Z,6.80
2022-10-03T10:07:21.467Z,3.87
2022-10-03T10:08:59.083Z,8.13
2022-10-03T10:10:31.126Z,7.30
2022-10-03T10:12:01.130Z,5.60
2022-10-03T10:14:06.338Z,9.37
2022-10-03T10:15:14.177Z,9.60
2022-10-03T10:16:47.977Z,6.40
2022-10-03T10:18:08.165Z,8.70
2022-10-03T10:19:36.319Z,5.07
2022-10-03T10:21:22.880Z,9.50
2022-10-03T10:22:47.220Z,14.53
2022-10-03T10:23:51.874Z,15.57
2022-10-03T10:25:18.448Z,10.97
2022-10-03T10:26:54.103Z,10.30
2022-10-03T10:28:14.379Z,11.30
2022-10-03T10:29:37.213Z,8.87
2022-10-03T10:30:57.570Z,9.70
2022-10-03T10:32:05.263Z,14.03
2022-10-03T10:33:44.383Z,11.70
2022-10-03T10:35:17.148Z,8.23
2022-10-03T10:37:04.535Z,12.97
2022-10-03T10:38:26.118Z,9.00
2022-10-03T10:39:33.893Z,16.27
2022-10-03T10:41:04.975Z,14.27
2022-10-03T10:42:44.371Z,16.83
2022-10-03T10:44:15.410Z,7.87
2022-10-03T10:45:48.568Z,11.13
2022-10-03T10:47:02.423Z,10.93
2022-10-03T10:48:48.734Z,9.53
2022-10-03T10:50:27.834Z,6.43
2022-10-03T10:51:38.601Z,9.80
2022-10-03T10:52:59.084Z,11.40
2022-10-03T10:54:38.482Z,10.33
2022-10-03T10:55:49.154Z,9.90
2022-10-03T10:57:30.006Z,7.70
2022-10-03T10:58:59.615Z,10.13
2022-10-03T11:00:05.449Z,11.80
2022-10-03T11:01:46.063Z,17.33
2022-10-03T11:03:39.209Z,9.20
2022-10-03T11:05:19.154Z,7.83
2022-10-03T11:07:04.367Z,10.07
2022-10-03T11:08:18.045Z,13.50
2022-10-03T11:09:41.767Z,10.73
2022-10-03T11:11:10.763Z,9.37
2022-10-03T11:12:38.303Z,16.43
2022-10-03T11:13:52.364Z,16.03
2022-10-03T11:15:06.332Z,8.13
2022-10-03T11:16:29.811Z,7.60
2022-10-03T11:17:42.376Z,6.87
2022-10-03T11:19:02.928Z,7.70
2022-10-03T11:20:42.233Z,5.60
2022-10-03T11:21:47.133Z,7.50
2022-10-03T11:23:22.629Z,10.93
2022-10-03T11:24:45.509Z,8.90
2022-10-03T11:26:28.724Z,14.03
2022-10-03T11:27:42.335Z,10.10
2022-10-03T11:29:21.445Z,10.53
2022-10-03T11:30:41.915Z,7.23
2022-10-03T11:32:08.385Z,16.10
2022-10-03T11:33:16.055Z,12.93
2022-10-03T11:34:57.610Z,13.03
2022-10-03T11:36:27.846Z,9.83
2022-10-03T11:37:38.514Z,13.20
2022-10-03T11:39:00.071Z,8.67
2022-10-03T11:40:15.219Z,14.17
2022-10-03T11:41:44.549Z,10.63
2022-10-03T11:43:24.365Z,8.67
2022-10-03T11:44:28.616Z,9.17
2022-10-03T11:45:46.862Z,10.43
2022-10-03T11:47:03.136Z,17.10
2022-10-03T11:48:26.287Z,10.53
2022-10-03T11:49:59.032Z,6.83
2022-10-03T11:51:28.953Z,12.27
2022-10-03T11:52:33.893Z,13.63
2022-10-03T11:53:52.027Z,11.77
2022-10-03T11:55:16.931Z,9.27
2022-10-03T11:56:32.278Z,7.83
2022-10-03T11:57:40.071Z,9.40
2022-10-03T11:59:00.520Z,8.33
2022-10-03T12:00:23.390Z,15.83
2022-10-03T12:01:28.841Z,6.80
2022-10-03T12:02:46.035Z,11.73
2022-10-03T12:04:10.039Z,11.83
2022-10-03T12:05:20.826Z,9.93
2022-10-03T12:06:58.624Z,14.73
2022-10-03T12:08:36.970Z,9.33
2022-10-03T12:10:01.062Z,8.73
2022-10-03T12:11:11.497Z,10.20
2022-10-03T12:12:44.003Z,17.53
2022-10-03T12:14:11.734Z,16.00
2022-10-03T12:15:28.733Z,8.47
2022-10-03T12:16:48.533Z,11.77
2022-10-03T12:17:57.665Z,13.03
2022-10-03T12:19:14.258Z,10.90
2022-10-03T12:20:23.927Z,9.80
2022-10-03T12:21:28.211Z,15.90
2022-10-03T12:22:37.950Z,13.20
2022-10-03T12:24:10.398Z,17.27
2022-10-03T12:25:40.560Z,13.57
2022-10-03T12:26:53.579Z,11.43
2022-10-03T12:28:04.212Z,10.60
2022-10-03T12:29:11.876Z,11.20
2022-10-03T12:30:16.617Z,16.47
2022-10-03T12:31:21.082Z,11.13
2022-10-03T12:32:32.784Z,10.73
2022-10-03T12:34:02.491Z,8.33
2022-10-03T12:35:32.953Z,11.00
2022-10-03T12:37:06.168Z,11.43
2022-10-03T12:38:46.522Z,11.20
2022-10-03T12:40:27.714Z,8.07
2022-10-03T12:41:48.736Z,13.53
2022-10-03T12:42:53.472Z,10.43
2022-10-03T12:44:19.607Z,12.30
2022-10-03T12:45:21.559Z,10.83
2022-10-03T12:46:51.251Z,18.00
2022-10-03T12:48:31.472Z,9.37
2022-10-03T12:50:01.158Z,11.47
2022-10-03T12:51:39.170Z,10.30
2022-10-03T12:53:00.705Z,12.23
2022-10-03T12:54:18.498Z,6.50
2022-10-03T12:55:28.364Z,10.43
2022-10-03T12:56:45.599Z,9.83
2022-10-03T12:57:55.135Z,10.20
2022-10-03T12:59:14.802Z,10.60
2022-10-03T13:00:21.786Z,6.60
2022-10-03T13:01:30.058Z,12.87
2022-10-03T13:02:38.139Z,11.77
2022-10-03T13:04:09.546Z,9.27
2022-10-03T13:05:36.200Z,12.13
2022-10-03T13:07:02.719Z,9.20
2022-10-03T13:08:39.530Z,7.23
2022-10-03T13:10:08.600Z,5.93
2022-10-03T13:11:46.002Z,9.57
2022-10-03T13:13:06.171Z,7.10
2022-10-03T13:14:46.191Z,9.33
2022-10-03T13:16:04.438Z,19.23
2022-10-03T13:17:25.039Z,9.97
2022-10-03T13:18:32.578Z,8.83
2022-10-03T13:19:43.718Z,7.83
2022-10-03T13:20:59.787Z,11.70
2022-10-03T13:22:22.951Z,7.47
2022-10-03T13:23:51.438Z,10.23
2022-10-03T13:25:21.931Z,12.80
2022-10-03T13:26:28.226Z,7.90
2022-10-03T13:27:43.199Z,7.97
2022-10-03T13:28:58.300Z,7.37
2022-10-03T13:30:13.207Z,7.80
2022-10-03T13:31:24.291Z,8.70
2022-10-03T13:32:38.500Z,7.17
2022-10-03T13:34:03.157Z,8.00
2022-10-03T13:35:52.065Z,10.20
2022-10-03T13:37:06.609Z,7.87
2022-10-03T13:38:32.655Z,4.90
2022-10-03T13:39:45.230Z,6.60
2022-10-03T13:41:28.587Z,4.13
2022-10-03T13:42:45.375Z,6.37
2022-10-03T13:43:55.294Z,5.03
2022-10-03T13:45:03.799Z,6.27
2022-10-03T13:46:13.441Z,5.97
2022-10-03T13:47:40.005Z,5.20
2022-10-03T13:48:48.625Z,4.37
2022-10-03T13:49:55.364Z,8.27
2022-10-03T13:51:47.454Z,7.17
2022-10-03T13:53:01.094Z,7.87
2022-10-03T13:54:28.682Z,12.27
2022-10-03T13:55:55.111Z,8.20
2022-10-03T13:57:29.605Z,5.97
2022-10-03T13:58:54.032Z,6.40
2022-10-03T14:00:12.307Z,5.50
2022-10-03T14:01:21.952Z,8.03
2022-10-03T14:02:41.965Z,6.40
2022-10-03T14:04:02.589Z,7.80
2022-10-03T14:05:30.036Z,7.40
2022-10-03T14:06:48.315Z,10.37
2022-10-03T14:07:58.812Z,6.67
2022-10-03T14:09:16.313Z,7.07
2022-10-03T14:10:26.470Z,14.83
2022-10-03T14:11:46.842Z,11.63
2022-10-03T14:13:00.312Z,4.30
2022-10-03T14:14:14.483Z,5.47
2022-10-03T14:15:20.576Z,9.57
2022-10-03T14:16:31.091Z,8.57
2022-10-03T14:17:42.309Z,8.73
2022-10-03T14:18:54.190Z,12.20
2022-10-03T14:20:06.970Z,14.70
2022-10-03T14:21:27.510Z,7.27
2022-10-03T14:23:10.689Z,9.07
2022-10-03T14:24:47.835Z,8.30
2022-10-03T14:26:15.960Z,7.63
2022-10-03T14:27:31.934Z,10.10
2022-10-03T14:28:45.550Z,10.17
2022-10-03T14:30:06.978Z,9.90
2022-10-03T14:31:25.367Z,12.77
2022-10-03T14:32:50.316Z,14.40
2022-10-03T14:34:17.040Z,11.33
2022-10-03T14:35:26.813Z,12.57
2022-10-03T14:36:44.120Z,9.23
2022-10-03T14:38:02.318Z,7.50
2022-10-03T14:39:14.325Z,14.53
2022-10-03T14:40:28.275Z,10.07
2022-10-03T14:41:32.795Z,9.70
2022-10-03T14:43:01.171Z,12.73
2022-10-03T14:44:13.545Z,9.10
2022-10-03T14:45:18.761Z,9.77
2022-10-03T14:46:24.863Z,11.70
2022-10-03T14:47:34.758Z,5.90
2022-10-03T14:48:45.095Z,10.43
2022-10-03T14:50:00.065Z,10.33
2022-10-03T14:51:19.394Z,11.77
2022-10-03T14:52:28.831Z,12.77
2022-10-03T14:53:31.026Z,15.50
2022-10-03T14:54:37.694Z,11.50
2022-10-03T14:55:46.315Z,9.63
2022-10-03T14:56:51.523Z,7.70
2022-10-03T14:58:10.213Z,8.60
2022-10-03T14:59:25.488Z,6.30
2022-10-03T15:00:38.829Z,10.00
2022-10-03T15:01:49.472Z,6.87
2022-10-03T15:02:51.661Z,6.23
2022-10-03T15:04:16.016Z,7.60
2022-10-03T15:06:09.867Z,6.30
2022-10-03T15:07:13.476Z,7.43
2022-10-03T15:08:17.601Z,8.27
2022-10-03T15:09:26.540Z,10.30
2022-10-03T15:10:30.630Z,6.80
2022-10-03T15:11:35.939Z,8.77
2022-10-03T15:12:40.543Z,11.33
2022-10-03T15:13:57.510Z,7.97
2022-10-03T15:14:59.342Z,5.53
2022-10-03T15:16:02.163Z,6.80
2022-10-03T15:17:27.002Z,7.87
2022-10-03T15:18:31.204Z,12.57
2022-10-03T15:19:47.963Z,9.03
2022-10-03T15:20:53.807Z,10.13
2022-10-03T15:22:05.810Z,5.67
2022-10-03T15:23:18.142Z,5.97
2022-10-03T15:24:31.074Z,15.83
2022-10-03T15:25:39.367Z,6.57
2022-10-03T15:26:43.224Z,11.57
2022-10-03T15:27:48.779Z,6.23
2022-10-03T15:29:03.909Z,11.20
2022-10-03T15:30:06.647Z,11.03
2022-10-03T15:31:14.433Z,9.90
2022-10-03T15:32:38.958Z,13.37
2022-10-03T15:33:42.979Z,11.03
2022-10-03T15:34:49.329Z,12.47
2022-10-03T15:35:55.548Z,6.37
2022-10-03T15:37:02.510Z,6.87
2022-10-03T15:38:16.895Z,10.07
2022-10-03T15:39:28.433Z,5.07
2022-10-03T15:40:33.945Z,10.17
2022-10-03T15:42:09.565Z,6.23
2022-10-03T15:43:20.187Z,7.37
2022-10-03T15:44:33.886Z,5.10
2022-10-03T15:45:37.708Z,6.87
2022-10-03T15:46:48.768Z,10.53
2022-10-03T15:47:51.650Z,6.47
2022-10-03T15:48:54.333Z,6.67
2022-10-03T15:50:07.402Z,9.07
2022-10-03T15:51:19.753Z,8.50
2022-10-03T15:52:23.131Z,6.43
2022-10-03T15:53:51.883Z,8.80
2022-10-03T15:55:10.969Z,12.20
2022-10-03T15:56:19.969Z,17.97
2022-10-03T15:57:35.030Z,14.03
2022-10-03T15:58:44.714Z,8.30
2022-10-03T15:59:51.976Z,10.73
2022-10-03T16:01:12.494Z,11.43
2022-10-03T16:02:30.620Z,7.87
2022-10-03T16:03:42.468Z,4.33
2022-10-03T16:04:46.962Z,11.57
2022-10-03T16:06:02.393Z,15.33
2022-10-03T16:07:12.462Z,8.87
2022-10-03T16:08:22.033Z,7.13
2022-10-03T16:09:50.700Z,7.30
2022-10-03T16:11:16.497Z,7.80
2022-10-03T16:12:35.139Z,6.03
2022-10-03T16:13:49.075Z,14.73
2022-10-03T16:15:16.995Z,14.23
2022-10-03T16:16:39.943Z,4.73
2022-10-03T16:17:45.901Z,7.90
2022-10-03T16:19:02.766Z,7.93
2022-10-03T16:20:22.385Z,5.17
2022-10-03T16:21:32.836Z,12.37
2022-10-03T16:22:43.608Z,10.33
2022-10-03T16:23:46.429Z,18.63
2022-10-03T16:24:57.155Z,53.23
2022-10-03T16:26:08.758Z,44.70
2022-10-03T16:27:24.670Z,30.30
2022-10-03T16:28:33.243Z,12.20
2022-10-03T16:29:39.956Z,7.73
2022-10-03T16:30:47.041Z,8.00
2022-10-03T16:31:58.705Z,9.53
2022-10-03T16:33:09.557Z,14.23
2022-10-03T16:34:16.728Z,15.47
2022-10-03T16:35:38.373Z,7.53
2022-10-03T16:36:46.166Z,8.93
2022-10-03T16:37:50.364Z,11.30
2022-10-03T16:38:54.018Z,19.07
2022-10-03T16:40:00.156Z,12.00
2022-10-03T16:41:22.211Z,7.57
2022-10-03T16:42:26.214Z,7.10
2022-10-03T16:43:31.555Z,7.63
2022-10-03T16:44:48.404Z,10.30
2022-10-03T16:45:50.997Z,5.90
2022-10-03T16:46:55.255Z,11.63
2022-10-03T16:48:19.739Z,10.47
2022-10-03T16:50:03.528Z,14.60
2022-10-03T16:51:15.738Z,12.23
2022-10-03T16:52:25.520Z,13.73
2022-10-03T16:53:29.004Z,9.93
2022-10-03T16:54:31.766Z,9.00
2022-10-03T16:55:39.188Z,6.03
2022-10-03T16:56:48.647Z,10.90
2022-10-03T16:57:58.198Z,12.60
2022-10-03T16:59:06.660Z,7.90
2022-10-03T17:00:33.279Z,10.63
2022-10-03T17:01:44.604Z,10.60
2022-10-03T17:02:48.389Z,9.80
2022-10-03T17:03:57.801Z,10.63
2022-10-03T17:05:08.957Z,8.80
2022-10-03T17:06:25.419Z,19.07
2022-10-03T17:07:37.042Z,16.10
2022-10-03T17:08:46.368Z,8.57
2022-10-03T17:09:51.236Z,10.47
2022-10-03T17:10:56.216Z,15.93
2022-10-03T17:12:00.851Z,11.73
2022-10-03T17:13:11.339Z,10.50
2022-10-03T17:14:19.275Z,12.10
2022-10-03T17:15:31.437Z,11.10
2022-10-03T17:16:47.287Z,32.87
2022-10-03T17:17:59.894Z,19.40
2022-10-03T17:19:16.098Z,11.63
2022-10-03T17:20:34.456Z,16.47
2022-10-03T17:21:40.099Z,11.40
2022-10-03T17:22:47.446Z,13.40
2022-10-03T17:24:20.662Z,32.93
2022-10-03T17:25:32.021Z,11.77
2022-10-03T17:26:38.524Z,11.00
2022-10-03T17:27:42.333Z,13.33
2022-10-03T17:29:02.029Z,13.00
2022-10-03T17:30:27.913Z,7.70